Time;durP1;ratioP1;P1;durP2;ratioP2;P2;SDS_P1;SDS_P2;PMS_P1;PMS_P2;Temp;Humidity;BMP_temperature;BMP_pressure;BME280_temperature;BME280_humidity;BME280_pressure;Samples;Min_cycle;Max_cycle;Signal;HPM_P1;HPM_P2
2021/01/13 00:01:03;;;;;;;9.47;3.83;;;1.80;99.90;;;0.03;100.00;99622.31;5024816;27;100560;-64
2021/01/13 00:03:30;;;;;;;8.77;3.40;;;1.80;99.90;;;0.03;100.00;99627.59;5024915;27;100215;-64
2021/01/13 00:05:56;;;;;;;6.90;3.83;;;1.70;99.90;;;0.04;100.00;99627.47;5027242;27;100037;-64
2021/01/13 00:08:22;;;;;;;6.70;3.50;;;1.70;99.90;;;0.04;100.00;99648.53;5026150;27;100886;-64
2021/01/13 00:10:49;;;;;;;7.73;4.37;;;1.80;99.90;;;0.07;100.00;99642.22;5024034;27;100170;-63
2021/01/13 00:13:15;;;;;;;7.53;3.97;;;1.90;99.90;;;0.05;100.00;99644.09;5025012;27;100283;-62
2021/01/13 00:15:42;;;;;;;5.17;4.00;;;1.70;99.90;;;0.09;100.00;99651.69;5024733;27;100163;-62
2021/01/13 00:18:09;;;;;;;7.60;4.53;;;1.90;99.90;;;0.11;100.00;99651.59;5024561;27;101077;-63
2021/01/13 00:20:35;;;;;;;11.37;4.50;;;1.80;99.90;;;0.10;100.00;99648.09;5024372;27;100629;-63
2021/01/13 00:23:02;;;;;;;7.87;4.30;;;1.80;99.90;;;0.12;100.00;99648.00;5024762;27;99880;-63
2021/01/13 00:25:28;;;;;;;9.70;4.50;;;1.90;99.90;;;0.15;100.00;99655.66;5024794;27;100249;-64
2021/01/13 00:27:55;;;;;;;7.83;4.83;;;1.90;99.90;;;0.16;100.00;99650.28;5023871;27;101212;-64
2021/01/13 00:30:22;;;;;;;11.60;4.63;;;1.90;99.90;;;0.15;100.00;99653.88;5024211;27;100821;-64
2021/01/13 00:32:49;;;;;;;6.40;4.77;;;1.90;99.90;;;0.17;100.00;99659.88;5024780;27;100183;-64
2021/01/13 00:35:17;;;;;;;8.53;4.43;;;2.00;99.90;;;0.18;100.00;99664.19;5024261;27;100365;-65
2021/01/13 00:37:44;;;;;;;9.07;4.20;;;2.00;99.90;;;0.17;100.00;99678.28;5024782;27;101430;-65
2021/01/13 00:40:12;;;;;;;8.53;4.77;;;1.90;99.90;;;0.20;100.00;99671.97;5024853;27;100322;-64
2021/01/13 00:42:47;;;;;;;9.00;4.80;;;2.00;99.90;;;0.17;100.00;99670.41;5024914;27;100071;-65
2021/01/13 00:45:15;;;;;;;8.73;4.53;;;1.90;99.90;;;0.17;100.00;99674.81;5024746;27;100054;-64
2021/01/13 00:47:42;;;;;;;9.27;3.80;;;2.00;99.90;;;0.16;100.00;99668.72;5026807;27;100295;-65
2021/01/13 00:50:10;;;;;;;10.87;4.33;;;2.00;99.90;;;0.19;100.00;99672.91;5025532;27;103019;-63
2021/01/13 00:52:38;;;;;;;10.07;4.70;;;1.90;99.90;;;0.18;100.00;99673.88;5027945;27;100261;-64
2021/01/13 00:55:05;;;;;;;7.17;3.53;;;2.10;99.90;;;0.17;100.00;99678.28;5028062;27;100296;-64
2021/01/13 00:57:32;;;;;;;8.13;4.40;;;1.90;99.90;;;0.16;100.00;99687.13;5027993;27;100986;-64
2021/01/13 00:59:58;;;;;;;8.73;4.30;;;2.10;99.90;;;0.18;100.00;99694.91;5027571;27;100879;-63
2021/01/13 01:02:25;;;;;;;7.37;4.57;;;2.00;99.90;;;0.14;100.00;99682.91;5028129;27;99973;-64
2021/01/13 01:04:51;;;;;;;7.37;4.13;;;1.90;99.90;;;0.13;100.00;99689.97;5027842;27;100311;-64
2021/01/13 01:07:18;;;;;;;8.77;4.40;;;2.10;99.90;;;0.11;100.00;99694.50;5027754;27;100220;-64
2021/01/13 01:09:45;;;;;;;8.70;4.00;;;2.00;99.90;;;0.10;100.00;99684.09;5028118;27;100538;-64
2021/01/13 01:12:11;;;;;;;9.57;3.57;;;2.00;99.90;;;0.03;100.00;99673.13;5027289;27;100314;-64
2021/01/13 01:14:38;;;;;;;10.83;3.20;;;1.90;99.90;;;0.00;100.00;99687.34;5027903;27;100126;-63
2021/01/13 01:17:10;;;;;;;9.53;4.03;;;1.80;99.90;;;-0.01;100.00;99690.94;5026548;27;101327;-63
2021/01/13 01:19:37;;;;;;;5.40;3.00;;;1.80;99.90;;;-0.05;100.00;99699.13;5007784;27;100467;-63
2021/01/13 01:22:03;;;;;;;10.00;3.90;;;1.80;99.90;;;-0.12;100.00;99705.75;5007453;27;100118;-63
2021/01/13 01:24:30;;;;;;;8.80;3.20;;;1.70;99.90;;;-0.16;100.00;99701.66;5006996;27;100487;-64
2021/01/13 01:26:57;;;;;;;8.77;3.90;;;1.00;99.90;;;-0.19;100.00;99697.44;5006855;27;100432;-63
2021/01/13 01:29:24;;;;;;;11.00;3.00;;;1.50;99.90;;;-0.21;100.00;99701.13;5022480;27;100645;-63
2021/01/13 01:31:52;;;;;;;7.73;3.13;;;1.50;99.90;;;-0.27;100.00;99712.91;5027655;27;100136;-63
2021/01/13 01:34:19;;;;;;;6.33;2.60;;;1.30;99.90;;;-0.29;100.00;99720.06;5028656;27;100293;-63
2021/01/13 01:36:46;;;;;;;9.87;2.50;;;1.30;99.90;;;-0.33;100.00;99718.56;5027569;27;102023;-64
2021/01/13 01:39:12;;;;;;;9.33;2.70;;;1.20;99.90;;;-0.34;100.00;99722.16;5028175;27;100600;-63
2021/01/13 01:41:43;;;;;;;9.53;3.40;;;1.30;99.90;;;-0.33;100.00;99721.19;5026678;27;100342;-63
2021/01/13 01:44:10;;;;;;;7.37;2.40;;;1.10;99.90;;;-0.38;100.00;99721.53;5027736;27;99920;-63
2021/01/13 01:46:40;;;;;;;6.40;2.27;;;1.10;99.90;;;-0.33;100.00;99720.34;5027043;27;100803;-63
2021/01/13 01:49:07;;;;;;;7.57;2.20;;;1.10;99.90;;;-0.32;100.00;99725.50;5027539;27;100340;-63
2021/01/13 01:51:39;;;;;;;8.70;3.03;;;1.20;99.90;;;-0.30;100.00;99723.63;5027965;27;99985;-64
2021/01/13 01:54:16;;;;;;;9.43;3.07;;;1.20;99.90;;;-0.26;100.00;99729.53;5027623;27;100126;-63
2021/01/13 01:56:44;;;;;;;7.83;2.90;;;1.30;99.90;;;-0.22;100.00;99742.34;5027798;27;100424;-63
2021/01/13 01:59:13;;;;;;;4.77;2.53;;;1.30;99.90;;;-0.18;100.00;99740.38;5026272;27;100700;-63
2021/01/13 02:01:42;;;;;;;5.53;2.17;;;1.40;99.90;;;-0.16;100.00;99734.06;5027308;27;100348;-63
2021/01/13 02:04:23;;;;;;;8.47;2.30;;;1.30;99.90;;;-0.12;100.00;99739.94;5026756;27;100268;-63
2021/01/13 02:07:28;;;;;;;8.57;2.87;;;1.50;99.90;;;-0.12;100.00;99735.50;5025637;27;101275;-63
2021/01/13 02:09:56;;;;;;;5.37;2.60;;;1.50;99.90;;;-0.12;100.00;99735.50;4942235;28;101318;-63
2021/01/13 02:12:35;;;;;;;7.73;2.77;;;1.50;99.90;;;-0.11;100.00;99734.56;5012363;27;99983;-64
2021/01/13 02:15:06;;;;;;;5.50;3.00;;;1.50;99.90;;;-0.14;100.00;99732.19;5026766;27;100166;-63
2021/01/13 02:17:36;;;;;;;7.60;2.97;;;1.60;99.90;;;-0.16;100.00;99735.84;5026496;27;100953;-63
2021/01/13 02:20:14;;;;;;;6.60;2.57;;;1.80;99.90;;;-0.16;100.00;99734.06;5026210;27;100602;-64
2021/01/13 02:22:58;;;;;;;9.67;2.60;;;1.60;99.90;;;-0.17;100.00;99737.63;5026435;27;100165;-63
2021/01/13 02:26:23;;;;;;;6.03;2.50;;;1.60;99.90;;;-0.17;100.00;99731.53;5027031;27;100093;-63
2021/01/13 02:29:04;;;;;;;11.07;2.90;;;1.60;99.90;;;-0.18;100.00;99730.69;5026381;27;101191;-63
2021/01/13 02:31:41;;;;;;;9.03;3.03;;;2.30;99.90;;;-0.20;100.00;99740.47;5026501;27;100557;-64
2021/01/13 02:34:19;;;;;;;5.87;2.30;;;1.70;99.90;;;-0.16;100.00;99728.81;5025737;27;100119;-64
2021/01/13 02:37:41;;;;;;;6.93;2.47;;;1.50;99.90;;;-0.13;100.00;99735.66;5026538;27;100611;-63
2021/01/13 02:40:17;;;;;;;6.97;2.57;;;1.60;99.90;;;-0.17;100.00;99742.91;5026018;27;101175;-63
2021/01/13 02:43:01;;;;;;;8.77;2.57;;;1.60;99.90;;;-0.13;100.00;99735.66;5006325;27;101301;-63
2021/01/13 02:45:30;;;;;;;7.10;2.20;;;1.60;99.90;;;-0.14;100.00;99728.69;5006915;27;100010;-63
2021/01/13 02:48:13;;;;;;;8.30;2.70;;;1.50;99.90;;;-0.08;100.00;99741.41;5013060;27;100034;-63
2021/01/13 02:50:50;;;;;;;19.47;2.87;;;1.60;99.90;;;-0.07;100.00;99743.09;5026103;27;101354;-62
2021/01/13 02:53:50;;;;;;;7.07;2.20;;;1.50;99.90;;;-0.12;100.00;99750.44;5026476;27;100699;-63
2021/01/13 02:56:28;;;;;;;6.80;2.13;;;1.60;99.90;;;-0.19;100.00;99746.56;5026008;27;100201;-63
2021/01/13 02:59:07;;;;;;;9.43;2.03;;;1.60;99.90;;;-0.28;100.00;99742.78;5025329;27;100211;-62
2021/01/13 03:01:39;;;;;;;7.00;2.70;;;1.50;99.90;;;-0.31;100.00;99750.88;5024893;27;101557;-62
2021/01/13 03:04:07;;;;;;;9.27;2.33;;;1.60;99.90;;;-0.36;100.00;99745.91;5025953;27;100695;-63
2021/01/13 03:06:39;;;;;;;6.77;2.33;;;1.50;99.90;;;-0.32;100.00;99748.34;5027083;27;100123;-64
2021/01/13 03:09:08;;;;;;;9.17;2.63;;;1.60;99.90;;;-0.32;100.00;99758.84;5018120;27;101117;-62
2021/01/13 03:11:35;;;;;;;8.93;1.80;;;1.50;99.90;;;-0.27;100.00;99756.78;5005462;27;101255;-64
2021/01/13 03:14:15;;;;;;;9.27;2.07;;;1.40;99.90;;;-0.22;100.00;99754.66;4987232;27;101384;-63
2021/01/13 03:17:10;;;;;;;7.90;2.03;;;1.30;99.90;;;-0.18;100.00;99764.88;5026192;27;100214;-63
2021/01/13 03:19:52;;;;;;;8.17;2.20;;;1.90;99.90;;;-0.13;100.00;99764.56;5026964;27;99825;-63
2021/01/13 03:22:27;;;;;;;7.70;1.93;;;1.40;99.90;;;-0.14;100.00;99762.88;5025515;27;100365;-63
2021/01/13 03:25:02;;;;;;;7.37;1.93;;;1.40;99.90;;;-0.18;100.00;99761.41;5025029;27;101241;-62
2021/01/13 03:27:33;;;;;;;2.77;1.70;;;1.50;99.90;;;-0.16;100.00;99762.16;5025688;27;100046;-63
2021/01/13 03:30:01;;;;;;;7.23;1.77;;;1.50;99.90;;;-0.16;100.00;99764.78;5026143;27;99981;-62
2021/01/13 03:32:40;;;;;;;13.27;2.60;;;1.60;99.90;;;-0.13;100.00;99769.84;5025748;27;101498;-63
2021/01/13 03:35:09;;;;;;;5.87;1.70;;;1.70;99.90;;;-0.12;100.00;99755.72;5026662;27;100335;-64
2021/01/13 03:38:03;;;;;;;5.23;1.53;;;1.60;99.90;;;-0.08;100.00;99757.19;5027543;27;100177;-63
2021/01/13 03:40:32;;;;;;;7.90;1.87;;;1.60;99.90;;;-0.07;100.00;99765.00;5026204;27;100216;-62
2021/01/13 03:43:01;;;;;;;6.47;2.27;;;1.60;99.90;;;-0.03;100.00;99761.22;5025942;27;100907;-63
2021/01/13 03:45:35;;;;;;;5.80;2.20;;;1.70;99.90;;;-0.01;100.00;99761.97;5026027;27;100615;-62
2021/01/13 03:48:29;;;;;;;5.40;2.00;;;1.80;99.90;;;0.05;100.00;99758.06;5019470;27;100217;-62
2021/01/13 03:50:57;;;;;;;5.43;1.77;;;1.90;99.90;;;0.05;100.00;99763.31;5014757;27;100244;-62
2021/01/13 03:53:27;;;;;;;7.27;1.90;;;1.80;99.90;;;0.05;100.00;99762.47;5025130;27;100895;-62
2021/01/13 03:55:55;;;;;;;6.40;1.87;;;1.90;99.90;;;0.09;100.00;99758.69;5024677;27;101544;-62
2021/01/13 03:58:50;;;;;;;6.60;2.00;;;2.10;99.90;;;0.10;100.00;99755.97;5025398;27;100293;-62
2021/01/13 04:01:53;;;;;;;7.73;1.83;;;1.80;99.90;;;0.05;100.00;99758.06;5025409;27;100285;-62
2021/01/13 04:04:38;;;;;;;9.60;2.00;;;1.80;99.90;;;0.06;100.00;99754.47;5024799;27;101012;-62
2021/01/13 04:07:09;;;;;;;5.37;2.57;;;1.80;99.90;;;0.12;100.00;99758.50;5024552;27;100913;-62
2021/01/13 04:09:37;;;;;;;6.10;1.93;;;1.80;99.90;;;0.09;100.00;99749.00;5024832;27;100059;-62
2021/01/13 04:12:14;;;;;;;5.63;2.03;;;1.80;99.90;;;0.10;100.00;99761.22;5025642;27;100473;-62
2021/01/13 04:14:55;;;;;;;9.27;2.10;;;1.90;99.90;;;0.05;100.00;99763.31;5025046;27;100978;-62
2021/01/13 04:17:23;;;;;;;9.50;1.97;;;2.70;99.90;;;0.06;100.00;99761.53;5025083;27;101193;-62
2021/01/13 04:19:51;;;;;;;6.37;2.10;;;1.70;99.90;;;0.04;100.00;99760.78;5024466;27;100231;-62
2021/01/13 04:22:25;;;;;;;11.63;2.00;;;1.70;99.90;;;0.09;100.00;99764.78;5026627;27;100027;-62
2021/01/13 04:24:53;;;;;;;10.07;2.37;;;1.70;99.90;;;0.06;100.00;99769.41;5027856;27;100540;-61
2021/01/13 04:27:20;;;;;;;6.73;2.10;;;1.70;99.90;;;0.05;100.00;99778.25;5028071;27;100894;-61
2021/01/13 04:29:48;;;;;;;7.03;2.17;;;2.30;99.90;;;0.07;100.00;99763.22;5028274;27;99939;-60
2021/01/13 04:32:15;;;;;;;4.90;1.80;;;1.80;99.90;;;0.07;100.00;99763.22;5028807;27;100062;-62
2021/01/13 04:34:42;;;;;;;5.97;2.20;;;1.80;99.90;;;0.07;100.00;99771.94;5028164;27;101216;-62
2021/01/13 04:37:11;;;;;;;6.13;1.73;;;1.70;99.90;;;0.10;100.00;99771.75;5029086;27;100613;-62
2021/01/13 04:39:39;;;;;;;5.47;1.97;;;1.80;99.90;;;0.09;100.00;99769.22;5028602;27;100017;-62
2021/01/13 04:42:09;;;;;;;7.13;2.07;;;1.70;99.90;;;0.17;100.00;99773.00;5028744;27;100205;-62
2021/01/13 04:45:04;;;;;;;6.87;2.10;;;2.30;99.90;;;0.17;100.00;99762.47;5028295;27;100006;-62
2021/01/13 04:47:49;;;;;;;5.43;2.40;;;2.10;99.90;;;0.12;100.00;99756.72;5028210;27;100133;-61
2021/01/13 04:50:19;;;;;;;9.00;2.10;;;1.90;99.90;;;0.10;100.00;99763.00;5028942;27;100097;-62
2021/01/13 04:52:48;;;;;;;4.03;1.73;;;1.90;99.90;;;0.08;100.00;99757.84;5028753;27;100068;-62
2021/01/13 04:55:24;;;;;;;7.47;1.90;;;2.00;99.90;;;0.13;100.00;99768.03;5027266;27;100896;-62
2021/01/13 04:59:03;;;;;;;6.27;2.13;;;2.50;99.90;;;0.08;100.00;99770.16;5028307;27;100345;-62
2021/01/13 05:02:05;;;;;;;5.87;1.70;;;1.80;99.90;;;0.00;100.00;99760.97;5022285;27;99995;-62
2021/01/13 05:04:56;;;;;;;6.37;1.90;;;1.80;99.90;;;-0.02;100.00;99768.16;5028243;27;100091;-61
2021/01/13 05:07:39;;;;;;;18.47;2.33;;;1.90;99.90;;;0.06;100.00;99772.88;5027859;27;100957;-62
2021/01/13 05:10:12;;;;;;;7.03;2.07;;;1.80;99.90;;;0.07;100.00;99766.69;5008275;27;102857;-61
2021/01/13 05:12:52;;;;;;;5.57;1.93;;;2.90;99.90;;;0.07;100.00;99771.09;5027556;27;100245;-61
2021/01/13 05:15:25;;;;;;;8.97;2.33;;;1.80;99.90;;;0.04;100.00;99764.25;5027806;27;99878;-61
2021/01/13 05:18:02;;;;;;;8.27;2.07;;;1.90;99.90;;;0.12;100.00;99767.22;5027308;27;100577;-62
2021/01/13 05:20:31;;;;;;;8.23;2.43;;;1.80;99.90;;;0.11;100.00;99762.06;5027353;27;101229;-62
2021/01/13 05:22:59;;;;;;;8.07;2.17;;;1.80;99.90;;;0.16;100.00;99773.94;5027309;27;100093;-61
2021/01/13 05:25:48;;;;;;;12.80;2.63;;;1.90;99.90;;;0.14;100.00;99772.34;5027858;27;100203;-62
2021/01/13 05:28:20;;;;;;;8.37;1.93;;;1.80;99.90;;;0.11;100.00;99777.84;5027749;27;100921;-62
2021/01/13 05:30:49;;;;;;;5.50;1.97;;;1.80;99.90;;;0.15;100.00;99771.41;5027846;27;100421;-62
2021/01/13 05:33:19;;;;;;;11.20;2.57;;;2.00;99.90;;;0.13;100.00;99773.31;5027463;27;99984;-62
2021/01/13 05:35:48;;;;;;;7.77;2.23;;;2.00;99.90;;;0.11;100.00;99770.81;5026363;27;100152;-62
2021/01/13 05:38:25;;;;;;;9.10;2.70;;;1.90;99.90;;;0.18;100.00;99782.56;5027162;27;100792;-62
2021/01/13 05:40:56;;;;;;;7.23;2.87;;;1.80;99.90;;;0.17;100.00;99786.16;5027500;27;101192;-61
2021/01/13 05:43:23;;;;;;;5.93;2.00;;;2.00;99.90;;;0.15;100.00;99801.19;5008674;27;100352;-63
2021/01/13 05:45:51;;;;;;;5.20;1.80;;;2.10;99.90;;;0.15;100.00;99800.34;5028077;27;99924;-61
2021/01/13 05:48:21;;;;;;;11.27;2.70;;;1.80;99.90;;;0.17;100.00;99794.03;5027578;27;101407;-62
2021/01/13 05:50:52;;;;;;;7.63;2.37;;;2.10;99.90;;;0.17;100.00;99794.03;5027379;27;100523;-62
2021/01/13 05:53:20;;;;;;;5.60;2.43;;;2.00;99.90;;;0.23;100.00;99784.91;5027920;27;99911;-62
2021/01/13 05:55:52;;;;;;;7.67;2.40;;;2.00;99.90;;;0.24;100.00;99787.44;5027751;27;100241;-62
2021/01/13 05:58:27;;;;;;;7.83;2.57;;;2.10;99.90;;;0.19;100.00;99792.16;5027834;27;100469;-62
2021/01/13 06:00:57;;;;;;;5.20;2.70;;;2.10;99.90;;;0.21;100.00;99797.31;5027009;27;101133;-60
2021/01/13 06:03:27;;;;;;;9.50;2.07;;;2.10;99.90;;;0.21;100.00;99784.16;5026549;27;100266;-62
2021/01/13 06:05:56;;;;;;;11.83;2.43;;;2.10;99.90;;;0.22;100.00;99789.31;5027325;27;100410;-62
2021/01/13 06:08:30;;;;;;;3.57;2.17;;;2.10;99.90;;;0.27;100.00;99784.56;5027473;27;101411;-62
2021/01/13 06:11:00;;;;;;;7.77;2.07;;;2.00;99.90;;;0.28;100.00;99785.41;5026021;27;101455;-62
2021/01/13 06:13:35;;;;;;;6.67;2.33;;;2.20;99.90;;;0.31;100.00;99787.84;5026977;27;100281;-62
2021/01/13 06:16:05;;;;;;;8.17;2.10;;;2.20;99.90;;;0.34;100.00;99774.47;5027678;27;100409;-62
2021/01/13 06:18:34;;;;;;;4.10;1.80;;;2.10;99.90;;;0.34;100.00;99791.13;5026997;27;101598;-61
2021/01/13 06:21:09;;;;;;;6.23;2.40;;;2.20;99.90;;;0.36;100.00;99791.00;5026743;27;101071;-61
2021/01/13 06:23:46;;;;;;;6.63;2.13;;;2.20;99.90;;;0.38;100.00;99791.72;5026413;27;99891;-62
2021/01/13 06:26:14;;;;;;;7.33;2.37;;;2.00;99.90;;;0.43;100.00;99789.63;5026279;27;100249;-62
2021/01/13 06:29:29;;;;;;;10.83;2.80;;;2.10;99.90;;;0.43;100.00;99799.31;5025743;27;101065;-62
2021/01/13 06:31:58;;;;;;;12.07;3.20;;;2.20;99.90;;;0.40;100.00;99791.63;5025990;27;100325;-62
2021/01/13 06:34:29;;;;;;;5.37;2.90;;;2.20;99.90;;;0.40;100.00;99792.47;5026974;27;100180;-62
2021/01/13 06:37:23;;;;;;;9.43;2.93;;;2.20;99.90;;;0.37;100.00;99795.34;5026503;27;100002;-62
2021/01/13 06:39:51;;;;;;;8.13;2.30;;;2.20;99.90;;;0.43;100.00;99796.69;5006843;27;100331;-64
2021/01/13 06:42:29;;;;;;;6.83;2.20;;;2.30;99.90;;;0.47;100.00;99792.91;5026505;27;99937;-62
2021/01/13 06:44:56;;;;;;;5.13;2.10;;;2.40;99.90;;;0.40;100.00;99797.72;5025791;27;100141;-62
2021/01/13 06:47:24;;;;;;;10.33;3.07;;;2.20;99.90;;;0.38;100.00;99797.00;5026617;27;99968;-62
2021/01/13 06:49:51;;;;;;;6.13;2.00;;;2.20;99.90;;;0.37;100.00;99805.84;5025819;27;100762;-62
2021/01/13 06:52:30;;;;;;;10.70;2.23;;;2.30;99.90;;;0.41;100.00;99802.03;5026314;27;100922;-62
2021/01/13 06:54:59;;;;;;;8.43;2.20;;;2.30;99.90;;;0.42;100.00;99805.53;5025629;27;100127;-62
2021/01/13 06:57:27;;;;;;;7.00;1.93;;;2.20;99.90;;;0.45;100.00;99802.69;5026423;27;100242;-61
2021/01/13 06:59:54;;;;;;;8.33;2.53;;;2.40;99.90;;;0.42;100.00;99803.72;5026008;27;101333;-62
2021/01/13 07:02:35;;;;;;;8.57;2.37;;;2.20;99.90;;;0.42;100.00;99805.53;5026776;27;100915;-62
2021/01/13 07:05:02;;;;;;;7.43;2.50;;;2.30;99.90;;;0.41;100.00;99803.84;5025703;27;100037;-62
2021/01/13 07:07:29;;;;;;;6.43;2.53;;;2.30;99.90;;;0.41;100.00;99807.31;5026303;27;100148;-63
2021/01/13 07:09:56;;;;;;;5.77;2.60;;;2.40;99.90;;;0.39;100.00;99801.31;5025288;27;100757;-62
2021/01/13 07:12:26;;;;;;;9.00;2.87;;;2.20;99.90;;;0.47;100.00;99804.28;5026443;27;100656;-61
2021/01/13 07:14:55;;;;;;;6.00;2.20;;;2.30;99.90;;;0.46;100.00;99810.47;5025290;27;100241;-63
2021/01/13 07:17:24;;;;;;;8.83;2.33;;;3.30;99.90;;;0.42;100.00;99818.69;5026460;27;100200;-63
2021/01/13 07:19:52;;;;;;;8.63;2.40;;;2.30;99.90;;;0.41;100.00;99809.94;5025178;27;101433;-62
2021/01/13 07:22:21;;;;;;;7.23;2.33;;;2.30;99.90;;;0.42;100.00;99811.63;5025714;27;100842;-63
2021/01/13 07:24:49;;;;;;;8.03;3.13;;;2.20;99.90;;;0.38;100.00;99810.16;5026057;27;100207;-63
2021/01/13 07:27:17;;;;;;;6.07;2.50;;;2.40;99.90;;;0.48;100.00;99816.50;5025713;27;100186;-63
2021/01/13 07:29:44;;;;;;;8.50;3.00;;;2.30;99.90;;;0.49;100.00;99814.69;5025752;27;100643;-62
2021/01/13 07:32:24;;;;;;;7.83;3.23;;;2.80;99.90;;;0.50;100.00;99803.19;5025564;27;100614;-62
2021/01/13 07:34:54;;;;;;;12.07;2.83;;;2.40;99.90;;;0.49;100.00;99815.53;5025327;27;100075;-62
2021/01/13 07:37:23;;;;;;;12.30;2.63;;;2.40;99.90;;;0.50;100.00;99809.31;5025897;27;99973;-61
2021/01/13 07:40:32;;;;;;;6.77;2.60;;;2.30;99.90;;;0.53;100.00;99802.97;5025097;27;100253;-64
2021/01/13 07:43:08;;;;;;;9.50;2.40;;;2.40;99.90;;;0.55;100.00;99812.47;5025496;27;101208;-61
2021/01/13 07:45:44;;;;;;;7.20;3.20;;;2.30;99.90;;;0.58;100.00;99814.06;5005620;27;100154;-63
2021/01/13 07:49:10;;;;;;;7.37;2.80;;;2.60;99.90;;;0.56;100.00;99805.41;5025161;27;100001;-63
2021/01/13 07:51:48;;;;;;;12.17;3.90;;;2.30;99.90;;;0.53;100.00;99809.09;5024406;27;101304;-62
2021/01/13 07:54:29;;;;;;;9.47;3.93;;;2.50;99.90;;;0.51;100.00;99805.72;5025828;27;100486;-63
2021/01/13 07:56:59;;;;;;;10.67;3.60;;;2.40;99.90;;;0.55;100.00;99812.47;5024099;27;100111;-63
2021/01/13 07:59:44;;;;;;;8.73;3.10;;;2.50;99.90;;;0.60;100.00;99809.53;5025117;27;100172;-61
2021/01/13 08:03:11;;;;;;;5.30;1.80;;;2.50;99.90;;;0.57;100.00;99818.47;5023366;27;101459;-62
2021/01/13 08:06:29;;;;;;;9.63;3.17;;;2.50;99.90;;;0.57;100.00;99812.38;5025034;27;101380;-62
2021/01/13 08:09:15;;;;;;;8.23;3.07;;;2.50;99.90;;;0.58;100.00;99819.31;5005143;27;100012;-62
2021/01/13 08:12:31;;;;;;;11.80;3.10;;;2.40;99.90;;;0.57;100.00;99821.09;5020571;27;100237;-63
2021/01/13 08:15:45;;;;;;;5.03;2.30;;;2.40;99.90;;;0.55;100.00;99817.72;5018670;27;101253;-63
2021/01/13 08:19:14;;;;;;;5.57;2.10;;;2.40;99.90;;;0.55;100.00;99812.47;5024694;27;100386;-63
2021/01/13 08:21:50;;;;;;;7.80;2.70;;;2.50;99.90;;;0.56;100.00;99818.56;5025045;27;100273;-63
2021/01/13 08:24:25;;;;;;;6.97;2.37;;;2.50;99.90;;;0.57;100.00;99815.00;5025735;27;100419;-62
2021/01/13 08:26:51;;;;;;;9.23;2.27;;;2.60;99.90;;;0.58;100.00;99812.25;5024176;27;100122;-62
2021/01/13 08:29:20;;;;;;;6.27;1.97;;;2.50;99.90;;;0.63;100.00;99817.19;5024168;27;100654;-63
2021/01/13 08:32:04;;;;;;;6.50;2.20;;;2.50;99.90;;;0.62;100.00;99824.25;5024383;27;100170;-60
2021/01/13 08:34:38;;;;;;;4.87;2.50;;;2.50;99.90;;;0.61;100.00;99819.97;5025203;27;100213;-63
2021/01/13 08:37:06;;;;;;;6.30;2.17;;;2.60;99.90;;;0.60;100.00;99812.16;5024124;27;100796;-63
2021/01/13 08:39:35;;;;;;;9.93;2.70;;;2.50;99.90;;;0.64;100.00;99813.59;5024482;27;100506;-63
2021/01/13 08:42:22;;;;;;;5.57;2.67;;;2.60;99.90;;;0.69;100.00;99817.63;5023996;27;100190;-63
2021/01/13 08:44:50;;;;;;;7.63;2.50;;;2.50;99.90;;;0.63;100.00;99820.66;5024668;27;100093;-63
2021/01/13 08:47:17;;;;;;;12.30;3.37;;;2.50;99.90;;;0.64;100.00;99816.25;5024055;27;100588;-62
2021/01/13 08:49:44;;;;;;;4.60;2.37;;;2.60;99.90;;;0.66;100.00;99804.66;5023382;27;101097;-62
2021/01/13 08:52:22;;;;;;;4.50;2.00;;;2.50;99.90;;;0.72;100.00;99813.94;5024372;27;100140;-62
2021/01/13 08:55:15;;;;;;;9.07;3.60;;;2.60;99.90;;;0.78;100.00;99805.59;5024163;27;100109;-62
2021/01/13 08:58:00;;;;;;;9.40;2.80;;;2.60;99.90;;;0.76;100.00;99814.53;5024342;27;100371;-61
2021/01/13 09:00:28;;;;;;;5.27;2.10;;;2.60;99.90;;;0.75;100.00;99807.59;5004904;27;102514;-61
2021/01/13 09:03:26;;;;;;;5.53;2.50;;;2.60;99.90;;;0.76;100.00;99806.63;5024254;27;100012;-63
2021/01/13 09:05:57;;;;;;;10.70;2.93;;;2.60;99.90;;;0.84;100.00;99810.44;5024252;27;99767;-62
2021/01/13 09:08:33;;;;;;;6.53;2.30;;;2.70;99.90;;;0.86;100.00;99803.28;5026224;27;100942;-62
2021/01/13 09:11:01;;;;;;;8.37;2.77;;;2.80;99.90;;;0.87;100.00;99791.75;5027533;27;101014;-62
2021/01/13 09:13:39;;;;;;;10.93;2.40;;;2.60;99.90;;;0.89;100.00;99808.31;5028126;27;100418;-62
2021/01/13 09:16:38;;;;;;;6.97;2.83;;;2.70;99.90;;;0.84;100.00;99806.97;5027369;27;99983;-62
2021/01/13 09:19:10;;;;;;;9.03;2.90;;;2.80;99.90;;;0.81;100.00;99815.91;5000840;27;101450;-63
2021/01/13 09:21:39;;;;;;;8.37;2.63;;;2.70;99.90;;;0.68;100.00;99813.31;5026154;27;100559;-62
2021/01/13 09:24:10;;;;;;;4.80;1.87;;;2.70;99.90;;;0.53;100.00;99806.47;5026404;27;100139;-61
2021/01/13 09:26:39;;;;;;;12.43;2.80;;;2.60;99.90;;;0.47;100.00;99811.31;5026528;27;100382;-62
2021/01/13 09:29:08;;;;;;;8.77;2.83;;;2.70;99.90;;;0.42;100.00;99816.03;5027694;27;100946;-62
2021/01/13 09:31:38;;;;;;;6.57;3.37;;;2.50;99.90;;;0.36;100.00;99812.06;5026181;27;100573;-62
2021/01/13 09:34:06;;;;;;;9.90;3.20;;;2.40;99.90;;;0.29;100.00;99816.03;5027521;27;99971;-61
2021/01/13 09:36:57;;;;;;;7.03;2.73;;;2.20;99.90;;;0.20;100.00;99817.53;5027031;27;100126;-63
2021/01/13 09:39:34;;;;;;;10.97;3.37;;;2.30;99.90;;;0.18;100.00;99814.16;5026904;27;100074;-61
2021/01/13 09:42:03;;;;;;;7.83;2.80;;;2.30;99.90;;;0.15;100.00;99809.09;5026354;27;100934;-63
2021/01/13 09:44:32;;;;;;;9.30;3.30;;;2.20;99.90;;;0.17;100.00;99812.47;5027885;27;100137;-63
2021/01/13 09:47:00;;;;;;;7.53;2.87;;;2.20;99.90;;;0.16;100.00;99810.78;5026442;27;100122;-63
2021/01/13 09:49:26;;;;;;;14.57;3.37;;;2.10;99.90;;;0.19;100.00;99809.72;5027121;27;100802;-64
2021/01/13 09:51:53;;;;;;;17.77;3.87;;;2.30;99.90;;;0.24;100.00;99808.47;5007223;27;100429;-62
2021/01/13 09:54:24;;;;;;;10.00;3.43;;;2.20;99.90;;;0.29;100.00;99805.53;5017783;27;100152;-62
2021/01/13 09:56:56;;;;;;;9.03;3.33;;;2.10;99.90;;;0.33;100.00;99809.63;5027398;27;100218;-62
2021/01/13 09:59:25;;;;;;;8.03;2.97;;;2.30;99.90;;;0.33;100.00;99815.75;5026628;27;101085;-62
2021/01/13 10:01:56;;;;;;;39.57;4.97;;;2.00;99.90;;;0.35;100.00;99808.59;5026752;27;100309;-62
2021/01/13 10:04:23;;;;;;;16.57;4.07;;;1.80;99.90;;;0.37;100.00;99799.75;5028192;27;100469;-63
2021/01/13 10:06:56;;;;;;;10.47;3.20;;;2.00;99.90;;;0.33;100.00;99802.59;5027222;27;100193;-62
2021/01/13 10:09:24;;;;;;;7.43;2.60;;;3.20;99.90;;;0.32;100.00;99792.16;5027207;27;100750;-63
2021/01/13 10:11:55;;;;;;;6.53;2.80;;;2.10;99.90;;;0.33;100.00;99793.84;5026756;27;100461;-65
2021/01/13 10:14:22;;;;;;;7.33;3.03;;;2.10;99.90;;;0.27;100.00;99792.47;5025085;27;100393;-64
2021/01/13 10:16:50;;;;;;;17.83;3.93;;;2.10;99.90;;;0.31;100.00;99786.06;5027479;27;99943;-63
2021/01/13 10:19:19;;;;;;;5.17;2.27;;;2.50;99.90;;;0.33;100.00;99785.94;5025222;27;100966;-62
2021/01/13 10:21:48;;;;;;;7.30;2.57;;;2.10;99.90;;;0.30;100.00;99789.63;5026433;27;100532;-62
2021/01/13 10:24:18;;;;;;;5.40;3.10;;;2.00;99.90;;;0.33;100.00;99786.78;5025569;27;100216;-62
2021/01/13 10:26:47;;;;;;;13.97;2.77;;;2.10;99.90;;;0.33;100.00;99775.44;5026516;27;100380;-62
2021/01/13 10:29:21;;;;;;;6.60;2.80;;;0.90;99.90;;;0.40;100.00;99781.09;5026650;27;101657;-62
2021/01/13 10:31:49;;;;;;;8.27;3.40;;;2.10;99.90;;;0.40;100.00;99781.94;5028437;27;100711;-62
2021/01/13 10:34:16;;;;;;;8.93;3.00;;;2.30;99.90;;;0.37;100.00;99765.53;5026899;27;100070;-62
2021/01/13 10:36:44;;;;;;;5.50;3.00;;;2.20;99.90;;;0.32;100.00;99769.31;5027137;27;100164;-62
2021/01/13 10:39:24;;;;;;;5.77;2.33;;;2.10;99.90;;;0.35;100.00;99774.38;5026226;27;101228;-62
2021/01/13 10:41:52;;;;;;;8.90;3.13;;;2.00;99.90;;;0.38;100.00;99778.56;5027043;27;100330;-63
2021/01/13 10:44:24;;;;;;;12.87;3.07;;;2.10;99.90;;;0.45;100.00;99779.00;5027334;27;100204;-62
2021/01/13 10:46:55;;;;;;;9.60;3.00;;;1.90;99.90;;;0.44;100.00;99769.41;5026190;27;100128;-62
2021/01/13 10:49:31;;;;;;;11.30;3.03;;;2.20;99.90;;;0.44;100.00;99774.69;5024982;27;101030;-62